Time;durP1;ratioP1;P1;durP2;ratioP2;P2;SDS_P1;SDS_P2;PMS_P1;PMS_P2;Temp;Humidity;BMP_temperature;BMP_pressure;BME280_temperature;BME280_humidity;BME280_pressure;Samples;Min_cycle;Max_cycle;Signal;HPM_P1;HPM_P2
2022/09/23 00:01:14;;;;;;;;;;;18.20;81.20;;;;;;5014826;28;19951;-24
2022/09/23 00:03:41;;;;;;;;;;;18.20;81.20;;;;;;5014875;28;19905;-24
2022/09/23 00:06:09;;;;;;;;;;;18.20;81.10;;;;;;5014642;28;19960;-24
2022/09/23 00:08:35;;;;;;;;;;;18.20;81.10;;;;;;5014648;28;19905;-24
2022/09/23 00:11:26;;;;;;;;;;;18.20;81.20;;;;;;5014496;28;20274;-24
2022/09/23 00:13:53;;;;;;;;;;;18.20;81.20;;;;;;5013217;28;19905;-24
2022/09/23 00:16:37;;;;;;;;;;;18.20;81.10;;;;;;5015086;28;19905;-24
2022/09/23 00:19:03;;;;;;;;;;;18.20;81.20;;;;;;5014607;28;19925;-24
2022/09/23 00:21:29;;;;;;;;;;;18.10;81.10;;;;;;5014534;28;20320;-24
2022/09/23 00:23:54;;;;;;;;;;;18.20;81.10;;;;;;5014370;28;20003;-24
2022/09/23 00:26:21;;;;;;;;;;;18.20;81.10;;;;;;5014424;28;19959;-24
2022/09/23 00:28:47;;;;;;;;;;;18.20;81.10;;;;;;5014440;28;20359;-24
2022/09/23 00:31:17;;;;;;;;;;;18.10;81.10;;;;;;5014323;28;19909;-24
2022/09/23 00:33:43;;;;;;;;;;;18.10;81.10;;;;;;5014480;28;19909;-24
2022/09/23 00:36:09;;;;;;;;;;;18.10;81.10;;;;;;5014457;28;19976;-23
2022/09/23 00:38:35;;;;;;;;;;;18.10;81.10;;;;;;5013734;28;19941;-23
2022/09/23 00:41:01;;;;;;;;;;;18.10;81.10;;;;;;5014011;28;19972;-23
2022/09/23 00:43:40;;;;;;;;;;;18.10;81.10;;;;;;5013927;28;20300;-23
2022/09/23 00:46:10;;;;;;;;;;;18.10;81.10;;;;;;5013661;28;20410;-23
2022/09/23 00:48:38;;;;;;;;;;;18.10;81.10;;;;;;5013698;28;19905;-33
2022/09/23 00:51:04;;;;;;;;;;;18.10;81.00;;;;;;5013533;28;19956;-23
2022/09/23 00:53:29;;;;;;;;;;;18.00;81.10;;;;;;5013707;28;19910;-23
2022/09/23 00:56:00;;;;;;;;;;;18.00;81.00;;;;;;5013913;28;19905;-23
2022/09/23 00:58:30;;;;;;;;;;;18.00;81.10;;;;;;5013824;28;19912;-23
2022/09/23 01:00:58;;;;;;;;;;;18.00;81.00;;;;;;5013390;28;20421;-23
2022/09/23 01:03:23;;;;;;;;;;;18.00;81.00;;;;;;5013994;28;20358;-23
2022/09/23 01:05:49;;;;;;;;;;;18.00;81.00;;;;;;5013659;28;19910;-23
2022/09/23 01:08:15;;;;;;;;;;;18.00;81.00;;;;;;5013425;28;20426;-23
2022/09/23 01:10:40;;;;;;;;;;;18.00;81.00;;;;;;5011943;28;20398;-23
2022/09/23 01:13:24;;;;;;;;;;;18.00;81.00;;;;;;5013387;28;19905;-23
2022/09/23 01:15:49;;;;;;;;;;;18.00;81.00;;;;;;5013158;28;19905;-23
2022/09/23 01:18:33;;;;;;;;;;;18.00;80.90;;;;;;5013128;28;19967;-23
2022/09/23 01:20:59;;;;;;;;;;;18.00;80.90;;;;;;5013062;28;19905;-23
2022/09/23 01:23:37;;;;;;;;;;;18.00;81.00;;;;;;5012962;28;19909;-23
2022/09/23 01:26:08;;;;;;;;;;;18.00;81.00;;;;;;5013172;28;19905;-23
2022/09/23 01:28:33;;;;;;;;;;;17.90;81.00;;;;;;5012842;28;19963;-23
2022/09/23 01:31:17;;;;;;;;;;;17.90;81.00;;;;;;5012849;28;19909;-23
2022/09/23 01:34:01;;;;;;;;;;;18.00;81.00;;;;;;5012994;28;19916;-23
2022/09/23 01:36:32;;;;;;;;;;;17.90;80.90;;;;;;5012843;28;19960;-23
2022/09/23 01:39:02;;;;;;;;;;;17.90;80.90;;;;;;5012716;28;19931;-23
2022/09/23 01:41:40;;;;;;;;;;;17.90;80.90;;;;;;5012852;28;19905;-24
2022/09/23 01:44:11;;;;;;;;;;;17.90;81.00;;;;;;5012830;28;19952;-23
2022/09/23 01:46:42;;;;;;;;;;;17.90;80.90;;;;;;5012759;28;19905;-24
2022/09/23 01:49:10;;;;;;;;;;;17.90;81.00;;;;;;5012569;28;19910;-24
2022/09/23 01:51:37;;;;;;;;;;;17.90;80.90;;;;;;5012911;28;20286;-24
2022/09/23 01:54:25;;;;;;;;;;;17.90;80.90;;;;;;5012743;28;19909;-23
2022/09/23 01:56:57;;;;;;;;;;;17.90;80.90;;;;;;5012774;28;19984;-23
2022/09/23 01:59:37;;;;;;;;;;;17.90;80.90;;;;;;5012474;28;20288;-23
2022/09/23 02:02:02;;;;;;;;;;;17.90;80.90;;;;;;5012551;28;19909;-23
2022/09/23 02:04:31;;;;;;;;;;;17.90;80.90;;;;;;5012749;28;19951;-23
2022/09/23 02:06:59;;;;;;;;;;;17.90;81.00;;;;;;5012666;28;20181;-23
2022/09/23 02:09:28;;;;;;;;;;;17.90;81.00;;;;;;5012463;28;19905;-23
2022/09/23 02:11:59;;;;;;;;;;;17.90;81.00;;;;;;5012596;28;20388;-23
2022/09/23 02:14:29;;;;;;;;;;;17.80;80.90;;;;;;5012438;28;19913;-23
2022/09/23 02:16:58;;;;;;;;;;;17.90;81.00;;;;;;5012692;28;19905;-23
2022/09/23 02:19:28;;;;;;;;;;;17.80;80.90;;;;;;5012416;28;19910;-23
2022/09/23 02:21:58;;;;;;;;;;;17.80;80.90;;;;;;5017234;28;19905;-23
2022/09/23 02:24:26;;;;;;;;;;;17.80;80.90;;;;;;5014246;28;19910;-23
2022/09/23 02:26:54;;;;;;;;;;;17.80;80.90;;;;;;5012656;28;19913;-23
2022/09/23 02:29:20;;;;;;;;;;;17.80;80.90;;;;;;5012223;28;19913;-23
2022/09/23 02:31:45;;;;;;;;;;;17.80;80.90;;;;;;5012290;28;19916;-23
2022/09/23 02:34:11;;;;;;;;;;;17.80;80.90;;;;;;5012423;28;19906;-23
2022/09/23 02:36:44;;;;;;;;;;;17.80;80.90;;;;;;5014811;28;20024;-23
2022/09/23 02:39:11;;;;;;;;;;;17.80;81.00;;;;;;5016041;28;19920;-24
2022/09/23 02:41:40;;;;;;;;;;;17.70;80.90;;;;;;5016296;28;19910;-24
2022/09/23 02:44:10;;;;;;;;;;;17.70;80.90;;;;;;5016090;28;19905;-23
2022/09/23 02:46:36;;;;;;;;;;;17.70;80.90;;;;;;5016090;28;20005;-23
2022/09/23 02:49:09;;;;;;;;;;;17.70;80.90;;;;;;5016288;28;19916;-23
2022/09/23 02:51:36;;;;;;;;;;;17.70;80.90;;;;;;5015839;28;19913;-23
2022/09/23 02:54:02;;;;;;;;;;;17.70;80.70;;;;;;5015833;28;19916;-23
2022/09/23 02:56:28;;;;;;;;;;;17.70;80.70;;;;;;5016002;28;19905;-23
2022/09/23 02:58:54;;;;;;;;;;;17.80;80.80;;;;;;5015706;28;19912;-23
2022/09/23 03:01:22;;;;;;;;;;;17.70;80.70;;;;;;5015751;28;19928;-23
2022/09/23 03:04:13;;;;;;;;;;;17.70;80.70;;;;;;5015824;28;20260;-23
2022/09/23 03:06:57;;;;;;;;;;;17.70;80.80;;;;;;5015653;28;19909;-24
2022/09/23 03:09:26;;;;;;;;;;;17.70;80.80;;;;;;5015561;28;19916;-24
2022/09/23 03:11:55;;;;;;;;;;;17.70;80.80;;;;;;5015410;28;20012;-23
2022/09/23 03:14:24;;;;;;;;;;;17.70;80.70;;;;;;5015536;28;19905;-23
2022/09/23 03:16:55;;;;;;;;;;;17.70;80.80;;;;;;5015317;28;20374;-24
2022/09/23 03:19:40;;;;;;;;;;;17.70;80.70;;;;;;5015327;28;20367;-23
2022/09/23 03:22:09;;;;;;;;;;;17.70;80.70;;;;;;5015324;28;20434;-23
2022/09/23 03:24:36;;;;;;;;;;;17.70;80.70;;;;;;5015414;28;20351;-23
2022/09/23 03:27:04;;;;;;;;;;;17.70;80.70;;;;;;5015168;28;20283;-23
2022/09/23 03:29:31;;;;;;;;;;;17.70;80.80;;;;;;5015048;28;19987;-23
2022/09/23 03:31:58;;;;;;;;;;;17.70;80.70;;;;;;5015298;28;19909;-23
2022/09/23 03:34:25;;;;;;;;;;;17.60;80.70;;;;;;5014155;28;20354;-23
2022/09/23 03:37:01;;;;;;;;;;;17.70;80.70;;;;;;5014937;28;20310;-23
2022/09/23 03:39:31;;;;;;;;;;;17.70;80.70;;;;;;5014993;28;19935;-23
2022/09/23 03:41:58;;;;;;;;;;;17.70;81.40;;;;;;5015319;28;20359;-23
2022/09/23 03:44:28;;;;;;;;;;;17.60;80.60;;;;;;5014989;28;19910;-23
2022/09/23 03:46:57;;;;;;;;;;;17.60;80.60;;;;;;5014043;28;19917;-23
2022/09/23 03:49:26;;;;;;;;;;;17.60;80.60;;;;;;5014650;28;19952;-23
2022/09/23 03:51:52;;;;;;;;;;;17.60;80.60;;;;;;5014714;28;19955;-23
2022/09/23 03:54:19;;;;;;;;;;;17.60;80.70;;;;;;5014707;28;19911;-23
2022/09/23 03:56:46;;;;;;;;;;;17.60;80.60;;;;;;5014729;28;19940;-23
2022/09/23 03:59:13;;;;;;;;;;;17.60;80.70;;;;;;5014684;28;19912;-24
2022/09/23 04:01:40;;;;;;;;;;;17.50;80.60;;;;;;5014674;28;20350;-24
2022/09/23 04:04:06;;;;;;;;;;;17.60;80.60;;;;;;5013575;28;19909;-23
2022/09/23 04:06:32;;;;;;;;;;;17.60;80.60;;;;;;5014581;28;20322;-23
2022/09/23 04:08:58;;;;;;;;;;;17.50;80.50;;;;;;5014294;28;19928;-23
2022/09/23 04:11:23;;;;;;;;;;;17.50;80.60;;;;;;5014323;28;20338;-23
2022/09/23 04:13:49;;;;;;;;;;;17.50;80.50;;;;;;5014463;28;19984;-24
2022/09/23 04:16:14;;;;;;;;;;;17.50;80.60;;;;;;5014331;28;19905;-24
2022/09/23 04:18:40;;;;;;;;;;;17.50;80.50;;;;;;5014189;28;19951;-23
2022/09/23 04:21:05;;;;;;;;;;;17.50;80.50;;;;;;5014275;28;19921;-23
2022/09/23 04:23:31;;;;;;;;;;;17.50;80.60;;;;;;5014163;28;19905;-23
2022/09/23 04:25:56;;;;;;;;;;;17.50;80.50;;;;;;5014076;28;19909;-23
2022/09/23 04:28:22;;;;;;;;;;;17.50;80.60;;;;;;5014071;28;19905;-23
2022/09/23 04:30:47;;;;;;;;;;;17.50;80.60;;;;;;5013930;28;19913;-23
2022/09/23 04:33:14;;;;;;;;;;;17.40;80.50;;;;;;5014045;28;19963;-23
2022/09/23 04:35:39;;;;;;;;;;;17.50;80.60;;;;;;5014072;28;19905;-23
2022/09/23 04:38:05;;;;;;;;;;;17.40;80.50;;;;;;5013945;28;19940;-23
2022/09/23 04:40:31;;;;;;;;;;;17.40;80.50;;;;;;5013717;28;19959;-23
2022/09/23 04:42:56;;;;;;;;;;;17.40;80.50;;;;;;5014085;28;19909;-23
2022/09/23 04:45:22;;;;;;;;;;;17.40;80.60;;;;;;5013895;28;19909;-24
2022/09/23 04:47:47;;;;;;;;;;;17.40;80.50;;;;;;5013775;28;19906;-23
2022/09/23 04:50:13;;;;;;;;;;;17.50;80.50;;;;;;5013546;28;19909;-23
2022/09/23 04:52:39;;;;;;;;;;;17.40;80.50;;;;;;5013796;28;20020;-23
2022/09/23 04:55:04;;;;;;;;;;;17.40;80.50;;;;;;5013673;28;19906;-23
2022/09/23 04:57:30;;;;;;;;;;;17.40;80.60;;;;;;5013645;28;19905;-23
2022/09/23 04:59:56;;;;;;;;;;;17.40;80.60;;;;;;5013298;28;20051;-23
2022/09/23 05:02:21;;;;;;;;;;;17.30;80.40;;;;;;5013574;28;19964;-23
2022/09/23 05:04:47;;;;;;;;;;;17.40;80.50;;;;;;5013663;28;19967;-23
2022/09/23 05:07:13;;;;;;;;;;;17.40;80.60;;;;;;5013384;28;19910;-23
2022/09/23 05:09:38;;;;;;;;;;;17.30;80.50;;;;;;5013395;28;20325;-23
2022/09/23 05:12:04;;;;;;;;;;;17.30;80.50;;;;;;5013332;28;19909;-23
2022/09/23 05:14:29;;;;;;;;;;;17.30;80.60;;;;;;5013721;28;19906;-23
2022/09/23 05:16:55;;;;;;;;;;;17.30;80.40;;;;;;5013348;28;19909;-23
2022/09/23 05:19:21;;;;;;;;;;;17.30;80.50;;;;;;5013527;28;19905;-23
2022/09/23 05:21:47;;;;;;;;;;;17.30;80.40;;;;;;5013076;28;19944;-23
2022/09/23 05:24:12;;;;;;;;;;;17.30;80.40;;;;;;5013148;28;19933;-23
2022/09/23 05:26:38;;;;;;;;;;;17.30;80.40;;;;;;5013173;28;19905;-23
2022/09/23 05:29:04;;;;;;;;;;;17.30;80.50;;;;;;5013071;28;19913;-23
2022/09/23 05:31:29;;;;;;;;;;;17.30;80.50;;;;;;5013036;28;19916;-23
2022/09/23 05:33:56;;;;;;;;;;;17.30;80.50;;;;;;5013379;28;19905;-23
2022/09/23 05:36:22;;;;;;;;;;;17.30;80.40;;;;;;5013412;28;20044;-23
2022/09/23 05:38:48;;;;;;;;;;;17.20;81.10;;;;;;5013329;28;19948;-23
2022/09/23 05:41:14;;;;;;;;;;;17.20;80.30;;;;;;5013141;28;19909;-23
2022/09/23 05:43:40;;;;;;;;;;;17.20;80.40;;;;;;5013137;28;19944;-23
2022/09/23 05:46:09;;;;;;;;;;;17.20;80.40;;;;;;5011584;28;19910;-23
2022/09/23 05:48:35;;;;;;;;;;;17.20;80.50;;;;;;5012838;28;19906;-23
2022/09/23 05:51:00;;;;;;;;;;;17.20;80.50;;;;;;5012841;28;20279;-23
2022/09/23 05:53:28;;;;;;;;;;;17.20;80.50;;;;;;5013050;28;19913;-23
2022/09/23 05:55:54;;;;;;;;;;;17.20;80.50;;;;;;5012895;28;20004;-23
2022/09/23 05:58:20;;;;;;;;;;;17.20;80.50;;;;;;5013234;28;19992;-23
2022/09/23 06:00:48;;;;;;;;;;;17.20;80.60;;;;;;5012940;28;19959;-23
2022/09/23 06:03:14;;;;;;;;;;;17.20;80.50;;;;;;5012877;28;19910;-23
2022/09/23 06:05:40;;;;;;;;;;;17.20;80.50;;;;;;5013221;28;19952;-23
2022/09/23 06:08:06;;;;;;;;;;;17.20;80.40;;;;;;5013584;28;19952;-23
2022/09/23 06:10:36;;;;;;;;;;;17.20;80.50;;;;;;5012311;28;20385;-23
2022/09/23 06:13:01;;;;;;;;;;;17.20;80.50;;;;;;5016939;28;19905;-23
2022/09/23 06:15:27;;;;;;;;;;;17.20;80.50;;;;;;5017002;28;19905;-23
2022/09/23 06:17:52;;;;;;;;;;;17.20;80.50;;;;;;5016932;28;19905;-23
2022/09/23 06:20:18;;;;;;;;;;;17.20;80.60;;;;;;5016417;28;20445;-23
2022/09/23 06:22:43;;;;;;;;;;;17.20;80.60;;;;;;5016854;28;19909;-23
2022/09/23 06:25:11;;;;;;;;;;;17.20;80.50;;;;;;5016808;28;19995;-23
2022/09/23 06:27:36;;;;;;;;;;;17.20;80.50;;;;;;5015736;28;19905;-23
2022/09/23 06:30:02;;;;;;;;;;;17.20;80.50;;;;;;5016358;28;19906;-23
2022/09/23 06:32:28;;;;;;;;;;;17.20;80.50;;;;;;5016394;28;19916;-23
2022/09/23 06:34:53;;;;;;;;;;;17.30;80.60;;;;;;5016443;28;20314;-23
2022/09/23 06:37:19;;;;;;;;;;;17.20;81.30;;;;;;5016855;28;19913;-23
2022/09/23 06:39:44;;;;;;;;;;;17.30;80.60;;;;;;5016166;28;19905;-23
2022/09/23 06:42:10;;;;;;;;;;;17.30;80.60;;;;;;5014986;28;19905;-23
2022/09/23 06:44:35;;;;;;;;;;;17.30;80.60;;;;;;5016216;28;19996;-23
2022/09/23 06:47:01;;;;;;;;;;;17.30;80.60;;;;;;5016230;28;20279;-24
2022/09/23 06:49:26;;;;;;;;;;;17.30;80.70;;;;;;5015952;28;19909;-24
2022/09/23 06:51:52;;;;;;;;;;;17.30;80.60;;;;;;5016090;28;19910;-24
2022/09/23 06:54:18;;;;;;;;;;;17.30;80.60;;;;;;5016423;28;20323;-24
2022/09/23 06:56:46;;;;;;;;;;;17.30;80.70;;;;;;5016059;28;19955;-24
2022/09/23 06:59:15;;;;;;;;;;;17.30;80.80;;;;;;5015843;28;19936;-24
2022/09/23 07:01:41;;;;;;;;;;;17.30;80.80;;;;;;5015962;28;19905;-23
2022/09/23 07:04:08;;;;;;;;;;;17.30;80.80;;;;;;5014873;28;19910;-23
2022/09/23 07:06:34;;;;;;;;;;;17.30;80.80;;;;;;5015925;28;20355;-23
2022/09/23 07:09:00;;;;;;;;;;;17.30;80.80;;;;;;5015894;28;19912;-23
2022/09/23 07:11:25;;;;;;;;;;;17.40;81.00;;;;;;5015769;28;20420;-23
2022/09/23 07:13:51;;;;;;;;;;;17.40;81.00;;;;;;5015085;28;20109;-23
2022/09/23 07:16:16;;;;;;;;;;;17.40;80.90;;;;;;5015760;28;19945;-23
2022/09/23 07:18:43;;;;;;;;;;;17.40;80.90;;;;;;5015666;28;19906;-23
2022/09/23 07:21:14;;;;;;;;;;;17.40;80.90;;;;;;5015546;28;20252;-23
2022/09/23 07:23:43;;;;;;;;;;;17.40;81.00;;;;;;5015778;28;20339;-23
2022/09/23 07:26:08;;;;;;;;;;;17.40;81.00;;;;;;5015635;28;19960;-23
2022/09/23 07:28:35;;;;;;;;;;;17.40;81.00;;;;;;5015490;28;19905;-23
2022/09/23 07:31:03;;;;;;;;;;;17.50;81.10;;;;;;5015473;28;19909;-23
2022/09/23 07:33:30;;;;;;;;;;;17.50;81.20;;;;;;5015544;28;19933;-23
2022/09/23 07:35:56;;;;;;;;;;;17.40;81.20;;;;;;5015364;28;20363;-23
2022/09/23 07:38:28;;;;;;;;;;;17.50;81.30;;;;;;5014051;28;19967;-23
2022/09/23 07:40:59;;;;;;;;;;;17.40;81.30;;;;;;5015275;28;19909;-23
2022/09/23 07:43:28;;;;;;;;;;;17.40;81.30;;;;;;5015298;28;20267;-23
2022/09/23 07:45:54;;;;;;;;;;;17.50;81.30;;;;;;5015192;28;20051;-23
2022/09/23 07:48:20;;;;;;;;;;;17.40;81.40;;;;;;5015420;28;19951;-23
2022/09/23 07:50:45;;;;;;;;;;;17.40;82.20;;;;;;5015072;28;20270;-23
2022/09/23 07:53:12;;;;;;;;;;;17.40;81.40;;;;;;5015032;28;19905;-23
2022/09/23 07:55:38;;;;;;;;;;;17.50;81.50;;;;;;5015188;28;19913;-23
2022/09/23 07:58:03;;;;;;;;;;;17.40;81.50;;;;;;5014888;28;19909;-23
2022/09/23 08:00:29;;;;;;;;;;;17.40;81.50;;;;;;5013699;28;19952;-23
2022/09/23 08:02:55;;;;;;;;;;;17.40;81.60;;;;;;5015223;28;19905;-23
2022/09/23 08:05:21;;;;;;;;;;;17.40;81.60;;;;;;5015053;28;20355;-23
2022/09/23 08:07:48;;;;;;;;;;;17.40;81.60;;;;;;5014758;28;20000;-23
2022/09/23 08:10:16;;;;;;;;;;;17.50;81.80;;;;;;5013225;28;19909;-24
2022/09/23 08:12:42;;;;;;;;;;;17.50;81.70;;;;;;5014616;28;19909;-23
2022/09/23 08:15:07;;;;;;;;;;;17.40;81.70;;;;;;5014811;28;19905;-23
2022/09/23 08:17:33;;;;;;;;;;;17.40;81.80;;;;;;5013314;28;19909;-23
2022/09/23 08:19:59;;;;;;;;;;;17.40;81.80;;;;;;5014525;28;19988;-23
2022/09/23 08:22:24;;;;;;;;;;;17.40;81.80;;;;;;5014573;28;19906;-22
2022/09/23 08:24:50;;;;;;;;;;;17.40;81.90;;;;;;5014634;28;19906;-23
2022/09/23 08:27:15;;;;;;;;;;;17.40;81.90;;;;;;5014279;28;19905;-23
2022/09/23 08:29:41;;;;;;;;;;;17.40;81.90;;;;;;5014491;28;19924;-23
2022/09/23 08:32:06;;;;;;;;;;;17.50;82.00;;;;;;5014085;28;19914;-23
2022/09/23 08:34:32;;;;;;;;;;;17.50;82.00;;;;;;5013818;28;20410;-23
2022/09/23 08:36:57;;;;;;;;;;;17.50;82.00;;;;;;5014312;28;19936;-23
2022/09/23 08:39:23;;;;;;;;;;;17.50;82.20;;;;;;5014143;28;19916;-23
2022/09/23 08:41:51;;;;;;;;;;;17.40;82.10;;;;;;5014531;28;19937;-23
2022/09/23 08:44:24;;;;;;;;;;;17.50;82.20;;;;;;5014015;28;19921;-23
2022/09/23 08:46:53;;;;;;;;;;;17.50;82.20;;;;;;5013906;28;20363;-23
2022/09/23 08:49:24;;;;;;;;;;;17.50;82.20;;;;;;5013904;28;19959;-23
2022/09/23 08:51:53;;;;;;;;;;;17.50;82.20;;;;;;5012758;28;19959;-23
2022/09/23 08:54:19;;;;;;;;;;;17.50;82.30;;;;;;5014042;28;19996;-23
2022/09/23 08:56:48;;;;;;;;;;;17.50;82.30;;;;;;5014325;28;20393;-23
2022/09/23 08:59:19;;;;;;;;;;;17.50;82.30;;;;;;5013666;28;19906;-23
2022/09/23 09:01:50;;;;;;;;;;;17.50;82.40;;;;;;5013971;28;19916;-23
2022/09/23 09:04:19;;;;;;;;;;;17.50;82.30;;;;;;5013679;28;20343;-23
2022/09/23 09:06:44;;;;;;;;;;;17.50;82.30;;;;;;5013593;28;20417;-23
2022/09/23 09:09:36;;;;;;;;;;;17.60;82.30;;;;;;5013521;28;19906;-23
2022/09/23 09:12:09;;;;;;;;;;;17.60;82.20;;;;;;5012526;28;19916;-23
2022/09/23 09:14:35;;;;;;;;;;;17.70;82.20;;;;;;5014054;28;20347;-23
2022/09/23 09:17:24;;;;;;;;;;;17.70;82.10;;;;;;5013621;28;19952;-23
2022/09/23 09:19:51;;;;;;;;;;;17.70;82.00;;;;;;5002501;28;19905;-23
2022/09/23 09:22:36;;;;;;;;;;;17.70;82.00;;;;;;5013279;28;20307;-23
2022/09/23 09:25:04;;;;;;;;;;;17.80;81.90;;;;;;5013266;28;20293;-23
2022/09/23 09:27:30;;;;;;;;;;;17.80;81.90;;;;;;5013038;28;20272;-23
2022/09/23 09:29:55;;;;;;;;;;;17.80;81.90;;;;;;5012984;28;20407;-23
2022/09/23 09:32:28;;;;;;;;;;;17.90;81.90;;;;;;5013119;28;19909;-23
2022/09/23 09:34:56;;;;;;;;;;;17.90;81.80;;;;;;5013249;28;20274;-23
2022/09/23 09:37:29;;;;;;;;;;;17.90;81.80;;;;;;5012957;28;19913;-23
2022/09/23 09:39:55;;;;;;;;;;;17.90;81.80;;;;;;5012830;28;20351;-23
2022/09/23 09:42:26;;;;;;;;;;;18.00;81.70;;;;;;5012883;28;19905;-23
2022/09/23 09:44:57;;;;;;;;;;;18.00;81.70;;;;;;5012633;28;20374;-23
2022/09/23 09:47:46;;;;;;;;;;;18.00;81.70;;;;;;5012959;28;19905;-23
2022/09/23 09:50:20;;;;;;;;;;;18.00;81.80;;;;;;5012855;28;19921;-23
2022/09/23 09:52:47;;;;;;;;;;;18.00;81.70;;;;;;5013118;28;19909;-23
2022/09/23 09:55:12;;;;;;;;;;;18.00;81.80;;;;;;5013014;28;19937;-23
2022/09/23 09:57:43;;;;;;;;;;;18.00;81.80;;;;;;5012839;28;19912;-23
2022/09/23 10:00:20;;;;;;;;;;;18.10;81.80;;;;;;5011378;28;19905;-23
2022/09/23 10:02:50;;;;;;;;;;;18.10;81.80;;;;;;5013248;28;19909;-23
2022/09/23 10:05:27;;;;;;;;;;;18.10;81.70;;;;;;5012857;28;19939;-23
2022/09/23 10:07:53;;;;;;;;;;;18.20;81.80;;;;;;5012828;28;19913;-23
2022/09/23 10:10:20;;;;;;;;;;;18.20;81.80;;;;;;5012534;28;19906;-23
2022/09/23 10:12:47;;;;;;;;;;;18.20;81.80;;;;;;5012779;28;19909;-23
2022/09/23 10:15:39;;;;;;;;;;;18.20;81.80;;;;;;5012981;28;19912;-23
2022/09/23 10:18:18;;;;;;;;;;;18.20;81.80;;;;;;5012747;28;19905;-23
2022/09/23 10:20:45;;;;;;;;;;;18.20;81.80;;;;;;5012855;28;19909;-23
2022/09/23 10:23:24;;;;;;;;;;;18.20;81.80;;;;;;5012705;28;19959;-23
2022/09/23 10:25:57;;;;;;;;;;;18.20;81.90;;;;;;5012542;28;19905;-23
2022/09/23 10:28:31;;;;;;;;;;;18.20;81.90;;;;;;5012649;28;20000;-23
2022/09/23 10:31:04;;;;;;;;;;;18.20;81.90;;;;;;5012439;28;19979;-23
2022/09/23 10:33:30;;;;;;;;;;;18.20;82.00;;;;;;5012800;28;19928;-23
2022/09/23 10:35:56;;;;;;;;;;;18.20;82.00;;;;;;5012442;28;19906;-23
2022/09/23 10:38:22;;;;;;;;;;;18.20;82.00;;;;;;5012446;28;19913;-23
2022/09/23 10:46:37;;;;;;;;;;;18.20;82.20;;;;;;5012525;28;19912;-23
2022/09/23 10:49:21;;;;;;;;;;;18.30;82.30;;;;;;5012189;28;19944;-23
2022/09/23 10:51:54;;;;;;;;;;;18.20;82.30;;;;;;5012220;28;19917;-23
2022/09/23 10:54:29;;;;;;;;;;;18.20;82.30;;;;;;5012514;28;19905;-23
2022/09/23 10:56:57;;;;;;;;;;;18.20;82.30;;;;;;5013811;28;19909;-23
2022/09/23 10:59:26;;;;;;;;;;;18.20;82.30;;;;;;5016038;28;19916;-23
2022/09/23 11:01:53;;;;;;;;;;;18.30;82.30;;;;;;5015899;28;19912;-23
2022/09/23 11:04:22;;;;;;;;;;;18.30;82.40;;;;;;5015984;28;19928;-23
2022/09/23 11:06:47;;;;;;;;;;;18.30;82.30;;;;;;5015878;28;19952;-23
2022/09/23 11:09:22;;;;;;;;;;;18.40;82.40;;;;;;5016068;28;20359;-23
2022/09/23 11:11:51;;;;;;;;;;;18.40;82.40;;;;;;5016033;28;19913;-23
2022/09/23 11:14:37;;;;;;;;;;;18.40;82.30;;;;;;5016017;28;19906;-23
2022/09/23 11:17:06;;;;;;;;;;;18.50;82.40;;;;;;5014444;28;19905;-23
2022/09/23 11:19:40;;;;;;;;;;;18.50;82.40;;;;;;5015526;28;19913;-23
2022/09/23 11:22:26;;;;;;;;;;;18.50;82.30;;;;;;5016055;28;19910;-23
2022/09/23 11:25:11;;;;;;;;;;;18.50;82.30;;;;;;5015686;28;20362;-23
2022/09/23 11:27:44;;;;;;;;;;;18.60;82.20;;;;;;5015519;28;19959;-23
2022/09/23 11:30:19;;;;;;;;;;;18.60;82.10;;;;;;5015300;28;19905;-23
2022/09/23 11:33:02;;;;;;;;;;;18.60;82.10;;;;;;5015176;28;19917;-24
2022/09/23 11:35:43;;;;;;;;;;;18.60;82.20;;;;;;5015326;28;19932;-23
2022/09/23 11:38:11;;;;;;;;;;;18.60;82.30;;;;;;5015310;28;19967;-24
2022/09/23 11:40:38;;;;;;;;;;;18.60;82.30;;;;;;5015186;28;19912;-23
2022/09/23 11:43:17;;;;;;;;;;;18.60;82.40;;;;;;5015085;28;19912;-23
2022/09/23 11:45:43;;;;;;;;;;;18.60;82.40;;;;;;5015157;28;19905;-23
2022/09/23 11:48:17;;;;;;;;;;;18.60;82.50;;;;;;5015056;28;20432;-23
2022/09/23 11:50:49;;;;;;;;;;;18.60;82.50;;;;;;5014979;28;19913;-23
2022/09/23 11:53:19;;;;;;;;;;;18.70;82.60;;;;;;5014989;28;19913;-23
2022/09/23 11:56:02;;;;;;;;;;;18.70;82.60;;;;;;5014800;28;19918;-23
2022/09/23 11:58:37;;;;;;;;;;;18.70;82.60;;;;;;5014815;28;20424;-23
2022/09/23 12:01:06;;;;;;;;;;;18.70;82.60;;;;;;5014852;28;19936;-23
2022/09/23 12:03:39;;;;;;;;;;;18.70;82.60;;;;;;5014856;28;20418;-23
2022/09/23 12:06:08;;;;;;;;;;;18.80;82.50;;;;;;5015829;28;19977;-23
2022/09/23 12:08:35;;;;;;;;;;;18.80;82.50;;;;;;5018597;28;19906;-23
2022/09/23 12:11:15;;;;;;;;;;;18.80;82.50;;;;;;5016090;28;19910;-23
2022/09/23 12:13:40;;;;;;;;;;;18.80;82.50;;;;;;5014940;28;20012;-23
2022/09/23 12:16:15;;;;;;;;;;;18.80;82.60;;;;;;5014438;28;20319;-23
2022/09/23 12:18:46;;;;;;;;;;;18.80;82.70;;;;;;5014581;28;19928;-23
2022/09/23 12:21:30;;;;;;;;;;;18.70;82.60;;;;;;5014600;28;19905;-23
2022/09/23 12:24:02;;;;;;;;;;;18.70;82.70;;;;;;5014330;28;19913;-23
2022/09/23 12:26:28;;;;;;;;;;;18.70;82.80;;;;;;5014334;28;20282;-24
2022/09/23 12:28:58;;;;;;;;;;;18.70;82.80;;;;;;5013950;28;19916;-23
2022/09/23 12:31:31;;;;;;;;;;;18.70;82.90;;;;;;5014498;28;19964;-23
2022/09/23 12:33:58;;;;;;;;;;;18.60;83.00;;;;;;5014353;28;19939;-23
2022/09/23 12:36:25;;;;;;;;;;;18.60;83.00;;;;;;5014442;28;20003;-23
2022/09/23 12:38:53;;;;;;;;;;;18.50;83.10;;;;;;5012678;28;19906;-23
2022/09/23 12:41:18;;;;;;;;;;;18.50;83.20;;;;;;5014059;28;20002;-23
2022/09/23 12:43:55;;;;;;;;;;;18.50;83.20;;;;;;5014183;28;19949;-23
2022/09/23 12:46:24;;;;;;;;;;;18.50;83.40;;;;;;5013896;28;20319;-23
2022/09/23 12:49:02;;;;;;;;;;;18.50;83.40;;;;;;5013652;28;19905;-23
2022/09/23 12:51:30;;;;;;;;;;;18.50;83.40;;;;;;5013684;28;20378;-23
2022/09/23 12:54:14;;;;;;;;;;;18.50;83.40;;;;;;5013614;28;19913;-23
2022/09/23 12:56:39;;;;;;;;;;;18.50;83.40;;;;;;5013759;28;19968;-23
2022/09/23 12:59:08;;;;;;;;;;;18.40;83.40;;;;;;5013563;28;20366;-23
2022/09/23 13:01:37;;;;;;;;;;;18.50;83.50;;;;;;5012501;28;19912;-23
2022/09/23 13:06:56;;;;;;;;;;;18.50;83.60;;;;;;5013585;28;19913;-23
2022/09/23 13:09:24;;;;;;;;;;;18.50;83.60;;;;;;5013445;28;20395;-23
2022/09/23 13:11:51;;;;;;;;;;;18.40;83.60;;;;;;5013763;28;19909;-23
2022/09/23 13:14:20;;;;;;;;;;;18.40;83.70;;;;;;5013358;28;20426;-23
2022/09/23 13:16:46;;;;;;;;;;;18.50;83.80;;;;;;5013195;28;19906;-23
2022/09/23 13:19:24;;;;;;;;;;;18.40;83.70;;;;;;5013301;28;19905;-23
2022/09/23 13:21:57;;;;;;;;;;;18.50;83.80;;;;;;5013364;28;19976;-23
2022/09/23 13:24:30;;;;;;;;;;;18.50;83.70;;;;;;5013352;28;19951;-23
2022/09/23 13:27:04;;;;;;;;;;;18.50;83.70;;;;;;5013266;28;20359;-23
2022/09/23 13:29:49;;;;;;;;;;;18.50;83.70;;;;;;5011909;28;19910;-23
2022/09/23 13:32:18;;;;;;;;;;;18.50;83.70;;;;;;5013078;28;20555;-23
2022/09/23 13:35:02;;;;;;;;;;;18.50;83.80;;;;;;5013111;28;19905;-23
2022/09/23 13:37:29;;;;;;;;;;;18.40;83.80;;;;;;5012924;28;20045;-23
2022/09/23 13:40:08;;;;;;;;;;;18.40;83.80;;;;;;5012963;28;19909;-23
2022/09/23 13:42:34;;;;;;;;;;;18.50;84.00;;;;;;5013008;28;19975;-23
2022/09/23 13:45:00;;;;;;;;;;;18.50;83.90;;;;;;5012932;28;19944;-23
2022/09/23 13:47:27;;;;;;;;;;;18.50;83.90;;;;;;5012806;28;19990;-23
2022/09/23 13:49:53;;;;;;;;;;;18.50;83.80;;;;;;5012697;28;19905;-23
2022/09/23 13:52:23;;;;;;;;;;;18.50;83.90;;;;;;5012607;28;19913;-23
2022/09/23 13:54:49;;;;;;;;;;;18.60;84.00;;;;;;5012844;28;20012;-23
2022/09/23 13:57:23;;;;;;;;;;;18.50;84.00;;;;;;5012737;28;20426;-23
2022/09/23 13:59:49;;;;;;;;;;;18.60;84.00;;;;;;5011369;28;20438;-23
2022/09/23 14:02:15;;;;;;;;;;;18.60;83.90;;;;;;5012584;28;19996;-23
2022/09/23 14:04:41;;;;;;;;;;;18.70;83.90;;;;;;5012750;28;19912;-23
2022/09/23 14:07:08;;;;;;;;;;;18.70;83.80;;;;;;5012852;28;19905;-23
2022/09/23 14:09:37;;;;;;;;;;;18.80;83.80;;;;;;5012499;28;20371;-23
2022/09/23 14:12:04;;;;;;;;;;;18.80;83.70;;;;;;5012438;28;19909;-23
2022/09/23 14:14:30;;;;;;;;;;;18.80;83.70;;;;;;5012692;28;19914;-23
2022/09/23 14:16:56;;;;;;;;;;;18.80;83.70;;;;;;5012475;28;19910;-23
2022/09/23 14:19:22;;;;;;;;;;;18.80;83.80;;;;;;5012286;28;20387;-23
2022/09/23 14:21:49;;;;;;;;;;;18.80;83.70;;;;;;5012504;28;19957;-23
2022/09/23 14:24:20;;;;;;;;;;;18.80;83.70;;;;;;5012568;28;19909;-24
2022/09/23 14:26:52;;;;;;;;;;;18.80;83.80;;;;;;5012389;28;19909;-23
2022/09/23 14:29:19;;;;;;;;;;;18.80;83.80;;;;;;5012321;28;19913;-23
2022/09/23 14:31:55;;;;;;;;;;;18.80;84.60;;;;;;5013558;28;20294;-23
2022/09/23 14:34:39;;;;;;;;;;;18.80;83.80;;;;;;5016472;28;19945;-23
2022/09/23 14:40:21;;;;;;;;;;;18.80;83.90;;;;;;5016424;28;19911;-23